FDX1461 KMIA-KJFK
Flight info
| Callsign | FDX1461 |
|---|---|
| Flight time | 2h 19m |
| Altitude | 37000 |
| Route | FOLZZ3 ALYRA PELCN Y309 FLRDA SAGGY CHIEZ Q161 KALDA Q108 SIE CAMRN5 |
| Aircraft | MD11/H-SDE1E2E3FGHIJ2J3J4J5M1RWXY/LB1D1 |
Departure
| Time | 2026-05-04 21:28 |
|---|---|
| Airport | Miami International Airport (KMIA) |
Arrival
| Time | 2026-05-04 23:47 |
|---|---|
| Airport | John F. Kennedy International Airport (KJFK) |
| Time | Latitude | Longitude | Altitude | Speed | Heading |
|---|---|---|---|---|---|
| 2026-05-04 21:27 | 25.78367 | -80.24296 | 3500 ft | 164 kts | 102° |
| 2026-05-04 21:28 | 25.78072 | -80.23054 | 4327 ft | 170 kts | 103° |
| 2026-05-04 21:28 | 25.77727 | -80.21779 | 5138 ft | 177 kts | 107° |
| 2026-05-04 21:28 | 25.77325 | -80.20476 | 5938 ft | 181 kts | 110° |
| 2026-05-04 21:28 | 25.76848 | -80.19054 | 6313 ft | 217 kts | 112° |
| 2026-05-04 21:29 | 25.76177 | -80.17361 | 6459 ft | 259 kts | 115° |
| 2026-05-04 21:29 | 25.75365 | -80.15486 | 7117 ft | 273 kts | 116° |
| 2026-05-04 21:29 | 25.74646 | -80.13507 | 8177 ft | 278 kts | 106° |
| 2026-05-04 21:29 | 25.74451 | -80.11354 | 9133 ft | 286 kts | 85° |
| 2026-05-04 21:30 | 25.75074 | -80.09234 | 9958 ft | 297 kts | 61° |
| 2026-05-04 21:30 | 25.76308 | -80.07329 | 10532 ft | 317 kts | 51° |
| 2026-05-04 21:30 | 25.77810 | -80.05412 | 10651 ft | 349 kts | 46° |
| 2026-05-04 21:30 | 25.79544 | -80.03295 | 10851 ft | 380 kts | 46° |
| 2026-05-04 21:31 | 25.83147 | -79.98837 | 12451 ft | 396 kts | 47° |
| 2026-05-04 21:31 | 25.84957 | -79.96550 | 13246 ft | 402 kts | 47° |
| 2026-05-04 21:31 | 25.86807 | -79.94193 | 14028 ft | 408 kts | 46° |
| 2026-05-04 21:32 | 25.88677 | -79.91799 | 14782 ft | 413 kts | 47° |
| 2026-05-04 21:32 | 25.90570 | -79.89366 | 15506 ft | 418 kts | 46° |
| 2026-05-04 21:32 | 25.92482 | -79.86905 | 16202 ft | 424 kts | 46° |
| 2026-05-04 21:32 | 25.94420 | -79.84412 | 16864 ft | 428 kts | 46° |
| 2026-05-04 21:33 | 25.96376 | -79.81894 | 17527 ft | 433 kts | 46° |
| 2026-05-04 21:33 | 25.98352 | -79.79349 | 18148 ft | 438 kts | 46° |
| 2026-05-04 21:33 | 26.00353 | -79.76770 | 18747 ft | 442 kts | 46° |
| 2026-05-04 21:33 | 26.02375 | -79.74162 | 19320 ft | 447 kts | 46° |
| 2026-05-04 21:34 | 26.04412 | -79.71535 | 19884 ft | 451 kts | 46° |
| 2026-05-04 21:34 | 26.06467 | -79.68885 | 20404 ft | 455 kts | 46° |
| 2026-05-04 21:34 | 26.08533 | -79.66216 | 20942 ft | 459 kts | 46° |
| 2026-05-04 21:34 | 26.10639 | -79.63489 | 21470 ft | 463 kts | 46° |
| 2026-05-04 21:35 | 26.12666 | -79.60681 | 21961 ft | 469 kts | 50° |
| 2026-05-04 21:35 | 26.14604 | -79.57730 | 22501 ft | 473 kts | 52° |
| 2026-05-04 21:35 | 26.16498 | -79.54707 | 23035 ft | 478 kts | 53° |
| 2026-05-04 21:35 | 26.18386 | -79.51647 | 23548 ft | 482 kts | 53° |
| 2026-05-04 21:36 | 26.20291 | -79.48559 | 24065 ft | 486 kts | 53° |
| 2026-05-04 21:36 | 26.22224 | -79.45441 | 24577 ft | 490 kts | 53° |
| 2026-05-04 21:36 | 26.24178 | -79.42310 | 25105 ft | 494 kts | 52° |
| 2026-05-04 21:36 | 26.26277 | -79.39261 | 25607 ft | 497 kts | 45° |
| 2026-05-04 21:37 | 26.28743 | -79.36589 | 26087 ft | 492 kts | 34° |
| 2026-05-04 21:37 | 26.31612 | -79.34549 | 26498 ft | 488 kts | 20° |
| 2026-05-04 21:37 | 26.34764 | -79.33183 | 26989 ft | 485 kts | 11° |
| 2026-05-04 21:37 | 26.38013 | -79.32183 | 27482 ft | 485 kts | 8° |
| 2026-05-04 21:38 | 26.41302 | -79.31303 | 27990 ft | 488 kts | 7° |
| 2026-05-04 21:38 | 26.44617 | -79.30421 | 28488 ft | 491 kts | 7° |
| 2026-05-04 21:38 | 26.47942 | -79.29494 | 28977 ft | 495 kts | 8° |
| 2026-05-04 21:38 | 26.51279 | -79.28517 | 29448 ft | 498 kts | 8° |
| 2026-05-04 21:39 | 26.54645 | -79.27498 | 29857 ft | 502 kts | 9° |
| 2026-05-04 21:39 | 26.58021 | -79.26455 | 30298 ft | 504 kts | 9° |
| 2026-05-04 21:39 | 26.61401 | -79.25400 | 30820 ft | 504 kts | 9° |
| 2026-05-04 21:39 | 26.64780 | -79.24344 | 31340 ft | 504 kts | 9° |
| 2026-05-04 21:40 | 26.68154 | -79.23290 | 31810 ft | 504 kts | 9° |
| 2026-05-04 21:40 | 26.71532 | -79.22235 | 32275 ft | 504 kts | 8° |
| 2026-05-04 21:40 | 26.74908 | -79.21183 | 32729 ft | 503 kts | 8° |
| 2026-05-04 21:40 | 26.78282 | -79.20131 | 33144 ft | 503 kts | 8° |
| 2026-05-04 21:41 | 26.81613 | -79.19094 | 33536 ft | 503 kts | 8° |
| 2026-05-04 21:41 | 26.84985 | -79.18045 | 33907 ft | 503 kts | 8° |
| 2026-05-04 21:41 | 26.88360 | -79.16993 | 34279 ft | 503 kts | 8° |
| 2026-05-04 21:41 | 26.91723 | -79.15945 | 34654 ft | 502 kts | 8° |
| 2026-05-04 21:42 | 26.95095 | -79.14894 | 34933 ft | 504 kts | 8° |
| 2026-05-04 21:42 | 27.01883 | -79.12778 | 35233 ft | 507 kts | 8° |
| 2026-05-04 21:42 | 27.05288 | -79.11713 | 35562 ft | 507 kts | 8° |
| 2026-05-04 21:43 | 27.08689 | -79.10648 | 35831 ft | 507 kts | 8° |
| 2026-05-04 21:43 | 27.12090 | -79.09582 | 36120 ft | 507 kts | 8° |
| 2026-05-04 21:43 | 27.15480 | -79.08517 | 36369 ft | 508 kts | 8° |
| 2026-05-04 21:43 | 27.18889 | -79.07445 | 36616 ft | 508 kts | 8° |
| 2026-05-04 21:44 | 27.22292 | -79.06373 | 36912 ft | 507 kts | 8° |
| 2026-05-04 21:44 | 27.28995 | -79.04260 | 37020 ft | 501 kts | 8° |
| 2026-05-04 21:45 | 27.35744 | -79.02142 | 37026 ft | 500 kts | 7° |
| 2026-05-04 21:45 | 27.42401 | -79.00051 | 37026 ft | 500 kts | 8° |
| 2026-05-04 21:46 | 27.49098 | -78.97940 | 37026 ft | 500 kts | 8° |
| 2026-05-04 21:46 | 27.55797 | -78.95824 | 37026 ft | 500 kts | 8° |
| 2026-05-04 21:47 | 27.62492 | -78.93709 | 37029 ft | 499 kts | 8° |
| 2026-05-04 21:47 | 27.69187 | -78.91591 | 37027 ft | 499 kts | 8° |
| 2026-05-04 21:48 | 27.75877 | -78.89473 | 37026 ft | 500 kts | 8° |
| 2026-05-04 21:48 | 27.82633 | -78.87328 | 37053 ft | 501 kts | 8° |
| 2026-05-04 21:49 | 27.89304 | -78.85210 | 37326 ft | 502 kts | 8° |
| 2026-05-04 21:49 | 27.92664 | -78.84142 | 37533 ft | 502 kts | 8° |
| 2026-05-04 21:49 | 27.96026 | -78.83071 | 37749 ft | 502 kts | 8° |
| 2026-05-04 21:49 | 27.99395 | -78.81997 | 37922 ft | 503 kts | 8° |
| 2026-05-04 21:50 | 28.02766 | -78.80921 | 38159 ft | 502 kts | 8° |
| 2026-05-04 21:50 | 28.06126 | -78.79847 | 38381 ft | 502 kts | 8° |
| 2026-05-04 21:50 | 28.09490 | -78.78774 | 38544 ft | 503 kts | 8° |
| 2026-05-04 21:50 | 28.12860 | -78.77698 | 38728 ft | 503 kts | 8° |
| 2026-05-04 21:51 | 28.16223 | -78.76624 | 38945 ft | 501 kts | 8° |
| 2026-05-04 21:51 | 28.21823 | -78.74835 | 39032 ft | 503 kts | 8° |
| 2026-05-04 21:52 | 28.29664 | -78.72329 | 39036 ft | 504 kts | 8° |
| 2026-05-04 21:52 | 28.35320 | -78.70514 | 39036 ft | 504 kts | 8° |
| 2026-05-04 21:53 | 28.42067 | -78.68348 | 39018 ft | 503 kts | 8° |
| 2026-05-04 21:53 | 28.48763 | -78.66195 | 39015 ft | 503 kts | 8° |
| 2026-05-04 21:54 | 28.55499 | -78.64027 | 39035 ft | 503 kts | 8° |
| 2026-05-04 21:54 | 28.62239 | -78.61858 | 39035 ft | 503 kts | 8° |
| 2026-05-04 21:55 | 28.68980 | -78.59685 | 39043 ft | 503 kts | 8° |
| 2026-05-04 21:55 | 28.75709 | -78.57509 | 39045 ft | 503 kts | 8° |
| 2026-05-04 21:56 | 28.82436 | -78.55324 | 39045 ft | 502 kts | 8° |
| 2026-05-04 21:56 | 28.89113 | -78.53162 | 39045 ft | 502 kts | 8° |
| 2026-05-04 21:57 | 28.95825 | -78.50988 | 39045 ft | 502 kts | 8° |
| 2026-05-04 21:57 | 29.02548 | -78.48805 | 39045 ft | 501 kts | 8° |
| 2026-05-04 21:58 | 29.09253 | -78.46621 | 39051 ft | 500 kts | 8° |
| 2026-05-04 21:58 | 29.15929 | -78.44448 | 39044 ft | 500 kts | 8° |
| 2026-05-04 21:59 | 29.22631 | -78.42266 | 39052 ft | 500 kts | 8° |
| 2026-05-04 21:59 | 29.29326 | -78.40080 | 39055 ft | 500 kts | 8° |
| 2026-05-04 22:00 | 29.36002 | -78.37895 | 39054 ft | 499 kts | 8° |
| 2026-05-04 22:00 | 29.42676 | -78.35716 | 39054 ft | 499 kts | 8° |
| 2026-05-04 22:01 | 29.49387 | -78.34108 | 39053 ft | 483 kts | 354° |
| 2026-05-04 22:01 | 29.56001 | -78.34427 | 39055 ft | 473 kts | 346° |
| 2026-05-04 22:02 | 29.62546 | -78.35178 | 39054 ft | 473 kts | 346° |
| 2026-05-04 22:02 | 29.69067 | -78.35784 | 39054 ft | 473 kts | 347° |
| 2026-05-04 22:03 | 29.75645 | -78.36292 | 39054 ft | 474 kts | 348° |
| 2026-05-04 22:03 | 29.82224 | -78.36776 | 39054 ft | 474 kts | 348° |
| 2026-05-04 22:04 | 29.88810 | -78.37266 | 39054 ft | 474 kts | 348° |
| 2026-05-04 22:04 | 29.95391 | -78.37760 | 39054 ft | 474 kts | 348° |
| 2026-05-04 22:05 | 30.01975 | -78.38255 | 39059 ft | 474 kts | 347° |
| 2026-05-04 22:05 | 30.08564 | -78.38750 | 39061 ft | 474 kts | 347° |
| 2026-05-04 22:06 | 30.15188 | -78.38941 | 39063 ft | 483 kts | 355° |
| 2026-05-04 22:06 | 30.21870 | -78.38057 | 39064 ft | 489 kts | 0° |
| 2026-05-04 22:07 | 30.28606 | -78.36912 | 39063 ft | 489 kts | 0° |
| 2026-05-04 22:07 | 30.35339 | -78.35825 | 39067 ft | 488 kts | 359° |
| 2026-05-04 22:08 | 30.42073 | -78.34777 | 39072 ft | 489 kts | 0° |
| 2026-05-04 22:08 | 30.48809 | -78.33372 | 39075 ft | 492 kts | 3° |
| 2026-05-04 22:09 | 30.55511 | -78.31765 | 39089 ft | 492 kts | 4° |
| 2026-05-04 22:09 | 30.62215 | -78.30154 | 39091 ft | 491 kts | 3° |
| 2026-05-04 22:10 | 30.68914 | -78.28571 | 39092 ft | 491 kts | 3° |
| 2026-05-04 22:10 | 30.75620 | -78.26995 | 39091 ft | 491 kts | 3° |
| 2026-05-04 22:11 | 30.82324 | -78.25414 | 39091 ft | 491 kts | 3° |
| 2026-05-04 22:11 | 30.88990 | -78.23844 | 39091 ft | 491 kts | 3° |
| 2026-05-04 22:12 | 30.95699 | -78.22281 | 39091 ft | 491 kts | 2° |
| 2026-05-04 22:12 | 31.02413 | -78.20783 | 39091 ft | 491 kts | 2° |
| 2026-05-04 22:13 | 31.09119 | -78.19297 | 39091 ft | 491 kts | 2° |
| 2026-05-04 22:13 | 31.15816 | -78.17811 | 39091 ft | 491 kts | 1° |
| 2026-05-04 22:14 | 31.22528 | -78.16320 | 39091 ft | 491 kts | 1° |
| 2026-05-04 22:14 | 31.29242 | -78.14823 | 39091 ft | 491 kts | 1° |
| 2026-05-04 22:15 | 31.35958 | -78.13321 | 39092 ft | 491 kts | 1° |
| 2026-05-04 22:15 | 31.42675 | -78.11839 | 39091 ft | 490 kts | 0° |
| 2026-05-04 22:16 | 31.49400 | -78.10607 | 39091 ft | 488 kts | 358° |
| 2026-05-04 22:16 | 31.56114 | -78.09486 | 39091 ft | 487 kts | 358° |
| 2026-05-04 22:17 | 31.62831 | -78.08358 | 39093 ft | 488 kts | 358° |
| 2026-05-04 22:17 | 31.69552 | -78.07216 | 39092 ft | 488 kts | 358° |
| 2026-05-04 22:18 | 31.76231 | -78.06071 | 39092 ft | 488 kts | 358° |
| 2026-05-04 22:18 | 31.82953 | -78.04916 | 39091 ft | 488 kts | 358° |
| 2026-05-04 22:19 | 31.89679 | -78.03759 | 39091 ft | 488 kts | 358° |
| 2026-05-04 22:19 | 31.96398 | -78.02608 | 39091 ft | 489 kts | 358° |
| 2026-05-04 22:20 | 32.03130 | -78.01446 | 39091 ft | 488 kts | 358° |
| 2026-05-04 22:20 | 32.09851 | -78.00282 | 39091 ft | 488 kts | 358° |
| 2026-05-04 22:21 | 32.16578 | -77.99117 | 39091 ft | 488 kts | 358° |
| 2026-05-04 22:21 | 32.23303 | -77.97951 | 39086 ft | 488 kts | 358° |
| 2026-05-04 22:22 | 32.30022 | -77.96783 | 39096 ft | 488 kts | 358° |
| 2026-05-04 22:22 | 32.36707 | -77.95618 | 39101 ft | 488 kts | 358° |
| 2026-05-04 22:23 | 32.43437 | -77.94446 | 39101 ft | 488 kts | 359° |
| 2026-05-04 22:23 | 32.50157 | -77.93275 | 39091 ft | 488 kts | 358° |
| 2026-05-04 22:24 | 32.56875 | -77.92104 | 39091 ft | 488 kts | 359° |
| 2026-05-04 22:24 | 32.63599 | -77.90929 | 39092 ft | 489 kts | 359° |
| 2026-05-04 22:25 | 32.70331 | -77.89751 | 39091 ft | 489 kts | 359° |
| 2026-05-04 22:25 | 32.77021 | -77.88575 | 39091 ft | 489 kts | 359° |
| 2026-05-04 22:26 | 32.83751 | -77.87393 | 39091 ft | 489 kts | 359° |
| 2026-05-04 22:26 | 32.90477 | -77.86211 | 39091 ft | 488 kts | 359° |
| 2026-05-04 22:27 | 32.97199 | -77.85027 | 39091 ft | 488 kts | 359° |
| 2026-05-04 22:27 | 33.03923 | -77.83841 | 39091 ft | 488 kts | 360° |
| 2026-05-04 22:28 | 33.10637 | -77.82652 | 39091 ft | 488 kts | 360° |
| 2026-05-04 22:28 | 33.17325 | -77.81465 | 39091 ft | 487 kts | 0° |
| 2026-05-04 22:29 | 33.24042 | -77.80269 | 39092 ft | 487 kts | 360° |
| 2026-05-04 22:29 | 33.30745 | -77.79083 | 39091 ft | 487 kts | 0° |
| 2026-05-04 22:30 | 33.37446 | -77.77895 | 39091 ft | 487 kts | 0° |
| 2026-05-04 22:30 | 33.44140 | -77.76703 | 39091 ft | 486 kts | 0° |
| 2026-05-04 22:31 | 33.50831 | -77.75508 | 39091 ft | 486 kts | 0° |
| 2026-05-04 22:31 | 33.57524 | -77.74313 | 39091 ft | 486 kts | 1° |
| 2026-05-04 22:32 | 33.64206 | -77.73117 | 39091 ft | 485 kts | 1° |
| 2026-05-04 22:32 | 33.70875 | -77.71849 | 39091 ft | 486 kts | 2° |
| 2026-05-04 22:33 | 33.77492 | -77.70409 | 39091 ft | 486 kts | 3° |
| 2026-05-04 22:33 | 33.84150 | -77.68931 | 39091 ft | 486 kts | 3° |
| 2026-05-04 22:34 | 33.90806 | -77.67461 | 39091 ft | 486 kts | 3° |
| 2026-05-04 22:34 | 33.97460 | -77.66002 | 39084 ft | 486 kts | 3° |
| 2026-05-04 22:35 | 34.04114 | -77.64540 | 39082 ft | 486 kts | 3° |
| 2026-05-04 22:35 | 34.10771 | -77.63078 | 39082 ft | 486 kts | 3° |
| 2026-05-04 22:36 | 34.17429 | -77.61610 | 39082 ft | 486 kts | 3° |
| 2026-05-04 22:36 | 34.24076 | -77.60141 | 39082 ft | 486 kts | 3° |
| 2026-05-04 22:37 | 34.30727 | -77.58670 | 39082 ft | 486 kts | 3° |
| 2026-05-04 22:37 | 34.37387 | -77.57196 | 39138 ft | 487 kts | 3° |
| 2026-05-04 22:37 | 34.40720 | -77.56458 | 39311 ft | 487 kts | 3° |
| 2026-05-04 22:38 | 34.44051 | -77.55720 | 39479 ft | 487 kts | 3° |
| 2026-05-04 22:38 | 34.47391 | -77.54980 | 39620 ft | 488 kts | 3° |
| 2026-05-04 22:38 | 34.50734 | -77.54225 | 39766 ft | 489 kts | 5° |
| 2026-05-04 22:38 | 34.54035 | -77.53112 | 39908 ft | 498 kts | 13° |
| 2026-05-04 22:39 | 34.57209 | -77.51501 | 40047 ft | 503 kts | 19° |
| 2026-05-04 22:39 | 34.60353 | -77.49606 | 40192 ft | 506 kts | 21° |
| 2026-05-04 22:39 | 34.63473 | -77.47613 | 40312 ft | 507 kts | 22° |
| 2026-05-04 22:39 | 34.66600 | -77.45613 | 40446 ft | 507 kts | 21° |
| 2026-05-04 22:40 | 34.69732 | -77.43643 | 40572 ft | 507 kts | 21° |
| 2026-05-04 22:40 | 34.74969 | -77.40430 | 40779 ft | 507 kts | 20° |
| 2026-05-04 22:40 | 34.78129 | -77.38518 | 40971 ft | 505 kts | 20° |
| 2026-05-04 22:41 | 34.81279 | -77.36619 | 41055 ft | 506 kts | 20° |
| 2026-05-04 22:41 | 34.87598 | -77.32812 | 41082 ft | 508 kts | 20° |
| 2026-05-04 22:42 | 34.93933 | -77.28981 | 41078 ft | 508 kts | 20° |
| 2026-05-04 22:42 | 35.00259 | -77.25144 | 41073 ft | 507 kts | 20° |
| 2026-05-04 22:43 | 35.06575 | -77.21306 | 41070 ft | 507 kts | 20° |
| 2026-05-04 22:43 | 35.12877 | -77.17471 | 41070 ft | 507 kts | 20° |
| 2026-05-04 22:44 | 35.19200 | -77.13617 | 41066 ft | 507 kts | 20° |
| 2026-05-04 22:44 | 35.25519 | -77.09758 | 41064 ft | 507 kts | 20° |
| 2026-05-04 22:45 | 35.31787 | -77.05911 | 41055 ft | 507 kts | 20° |
| 2026-05-04 22:45 | 35.41250 | -77.00092 | 41053 ft | 507 kts | 20° |
| 2026-05-04 22:46 | 35.47565 | -76.96211 | 41050 ft | 507 kts | 20° |
| 2026-05-04 22:46 | 35.53878 | -76.92326 | 41045 ft | 507 kts | 20° |
| 2026-05-04 22:47 | 35.60195 | -76.88445 | 41046 ft | 507 kts | 20° |
| 2026-05-04 22:47 | 35.66526 | -76.84592 | 41045 ft | 507 kts | 20° |
| 2026-05-04 22:48 | 35.72836 | -76.80758 | 41037 ft | 506 kts | 20° |
| 2026-05-04 22:48 | 35.79158 | -76.76909 | 41034 ft | 506 kts | 20° |
| 2026-05-04 22:49 | 35.85482 | -76.73051 | 41038 ft | 507 kts | 20° |
| 2026-05-04 22:49 | 35.91785 | -76.69133 | 41030 ft | 508 kts | 21° |
| 2026-05-04 22:50 | 35.97965 | -76.64993 | 41022 ft | 509 kts | 23° |
| 2026-05-04 22:50 | 36.04165 | -76.60755 | 41031 ft | 509 kts | 23° |
| 2026-05-04 22:51 | 36.10360 | -76.56533 | 41024 ft | 508 kts | 23° |
| 2026-05-04 22:51 | 36.16566 | -76.52314 | 41024 ft | 508 kts | 23° |
| 2026-05-04 22:52 | 36.22769 | -76.48094 | 41023 ft | 508 kts | 23° |
| 2026-05-04 22:52 | 36.28965 | -76.43869 | 41027 ft | 508 kts | 23° |
| 2026-05-04 22:53 | 36.35165 | -76.39634 | 41014 ft | 508 kts | 23° |
| 2026-05-04 22:53 | 36.41357 | -76.35395 | 41015 ft | 508 kts | 23° |
| 2026-05-04 22:54 | 36.47555 | -76.31146 | 41008 ft | 509 kts | 23° |
| 2026-05-04 22:54 | 36.53742 | -76.26895 | 41002 ft | 507 kts | 23° |
| 2026-05-04 22:55 | 36.59924 | -76.22641 | 40999 ft | 508 kts | 23° |
| 2026-05-04 22:55 | 36.66057 | -76.18402 | 40999 ft | 508 kts | 23° |
| 2026-05-04 22:56 | 36.72222 | -76.14124 | 40990 ft | 507 kts | 23° |
| 2026-05-04 22:56 | 36.78379 | -76.09856 | 40990 ft | 506 kts | 23° |
| 2026-05-04 22:57 | 36.84534 | -76.05589 | 40981 ft | 505 kts | 23° |
| 2026-05-04 22:57 | 36.90678 | -76.01322 | 40981 ft | 505 kts | 23° |
| 2026-05-04 22:58 | 36.96814 | -75.97052 | 40981 ft | 505 kts | 23° |
| 2026-05-04 22:58 | 37.02948 | -75.92777 | 40981 ft | 506 kts | 24° |
| 2026-05-04 22:59 | 37.09214 | -75.88864 | 40981 ft | 498 kts | 14° |
| 2026-05-04 22:59 | 37.15797 | -75.86384 | 40988 ft | 492 kts | 8° |
| 2026-05-04 23:00 | 37.22423 | -75.84255 | 40989 ft | 491 kts | 8° |
| 2026-05-04 23:00 | 37.29027 | -75.82039 | 40990 ft | 492 kts | 9° |
| 2026-05-04 23:01 | 37.35614 | -75.79743 | 40990 ft | 491 kts | 9° |
| 2026-05-04 23:01 | 37.42145 | -75.77443 | 40989 ft | 490 kts | 9° |
| 2026-05-04 23:02 | 37.48708 | -75.75130 | 40990 ft | 490 kts | 9° |
| 2026-05-04 23:02 | 37.55266 | -75.72817 | 40989 ft | 488 kts | 9° |
| 2026-05-04 23:03 | 37.61808 | -75.70508 | 40989 ft | 488 kts | 9° |
| 2026-05-04 23:03 | 37.68336 | -75.68199 | 40989 ft | 487 kts | 9° |
| 2026-05-04 23:04 | 37.74852 | -75.65889 | 40989 ft | 486 kts | 9° |
| 2026-05-04 23:04 | 37.81366 | -75.63577 | 40990 ft | 486 kts | 10° |
| 2026-05-04 23:05 | 37.87642 | -75.60191 | 40997 ft | 498 kts | 27° |
| 2026-05-04 23:05 | 37.93376 | -75.55144 | 41000 ft | 503 kts | 32° |
| 2026-05-04 23:06 | 37.99023 | -75.49894 | 40998 ft | 503 kts | 31° |
| 2026-05-04 23:06 | 38.04731 | -75.44791 | 41001 ft | 500 kts | 29° |
| 2026-05-04 23:07 | 38.10538 | -75.39939 | 40991 ft | 499 kts | 28° |
| 2026-05-04 23:07 | 38.16386 | -75.35191 | 40983 ft | 499 kts | 27° |
| 2026-05-04 23:08 | 38.22196 | -75.30463 | 40980 ft | 499 kts | 27° |
| 2026-05-04 23:08 | 38.28434 | -75.26949 | 40980 ft | 484 kts | 7° |
| 2026-05-04 23:09 | 38.35029 | -75.25611 | 40981 ft | 479 kts | 1° |
| 2026-05-04 23:09 | 38.41659 | -75.24562 | 40981 ft | 480 kts | 2° |
| 2026-05-04 23:10 | 38.48277 | -75.23293 | 40971 ft | 481 kts | 3° |
| 2026-05-04 23:10 | 38.54893 | -75.21905 | 40934 ft | 483 kts | 4° |
| 2026-05-04 23:11 | 38.58209 | -75.21200 | 40634 ft | 482 kts | 4° |
| 2026-05-04 23:11 | 38.61521 | -75.20495 | 40271 ft | 482 kts | 4° |
| 2026-05-04 23:11 | 38.64827 | -75.19792 | 39726 ft | 480 kts | 4° |
| 2026-05-04 23:11 | 38.68104 | -75.19027 | 39189 ft | 479 kts | 7° |
| 2026-05-04 23:12 | 38.71300 | -75.17758 | 38630 ft | 484 kts | 17° |
| 2026-05-04 23:12 | 38.74307 | -75.15807 | 38083 ft | 488 kts | 27° |
| 2026-05-04 23:12 | 38.77073 | -75.13247 | 37526 ft | 491 kts | 35° |
| 2026-05-04 23:12 | 38.79676 | -75.10415 | 36972 ft | 491 kts | 37° |
| 2026-05-04 23:13 | 38.82243 | -75.07549 | 36416 ft | 487 kts | 36° |
| 2026-05-04 23:13 | 38.84794 | -75.04783 | 35843 ft | 485 kts | 35° |
| 2026-05-04 23:13 | 38.87443 | -75.02022 | 35300 ft | 489 kts | 34° |
| 2026-05-04 23:13 | 38.90081 | -74.99353 | 34748 ft | 489 kts | 33° |
| 2026-05-04 23:14 | 38.92759 | -74.96690 | 34158 ft | 486 kts | 33° |
| 2026-05-04 23:14 | 38.95439 | -74.94045 | 33558 ft | 484 kts | 33° |
| 2026-05-04 23:14 | 38.98107 | -74.91416 | 32958 ft | 483 kts | 33° |
| 2026-05-04 23:14 | 39.00769 | -74.88789 | 32369 ft | 482 kts | 33° |
| 2026-05-04 23:15 | 39.03431 | -74.86156 | 31769 ft | 483 kts | 33° |
| 2026-05-04 23:15 | 39.06092 | -74.83519 | 31180 ft | 483 kts | 33° |
| 2026-05-04 23:15 | 39.08729 | -74.80889 | 30574 ft | 483 kts | 33° |
| 2026-05-04 23:15 | 39.11354 | -74.78163 | 30202 ft | 482 kts | 34° |
| 2026-05-04 23:16 | 39.13945 | -74.75393 | 29674 ft | 485 kts | 35° |
| 2026-05-04 23:16 | 39.16508 | -74.72614 | 28904 ft | 478 kts | 35° |
| 2026-05-04 23:16 | 39.19035 | -74.69861 | 28200 ft | 473 kts | 35° |
| 2026-05-04 23:16 | 39.21530 | -74.67145 | 27525 ft | 468 kts | 35° |
| 2026-05-04 23:17 | 39.24013 | -74.64448 | 26870 ft | 464 kts | 35° |
| 2026-05-04 23:17 | 39.26472 | -74.61781 | 26220 ft | 460 kts | 35° |
| 2026-05-04 23:17 | 39.28916 | -74.59132 | 25582 ft | 456 kts | 35° |
| 2026-05-04 23:17 | 39.31335 | -74.56509 | 24949 ft | 452 kts | 35° |
| 2026-05-04 23:18 | 39.33731 | -74.53909 | 24313 ft | 449 kts | 35° |
| 2026-05-04 23:18 | 39.36115 | -74.51319 | 23701 ft | 445 kts | 35° |
| 2026-05-04 23:18 | 39.38472 | -74.48757 | 23082 ft | 442 kts | 35° |
| 2026-05-04 23:18 | 39.40816 | -74.46205 | 22466 ft | 439 kts | 36° |
| 2026-05-04 23:19 | 39.43144 | -74.43660 | 21827 ft | 436 kts | 36° |
| 2026-05-04 23:19 | 39.45451 | -74.41137 | 21160 ft | 432 kts | 36° |
| 2026-05-04 23:19 | 39.47738 | -74.38634 | 20526 ft | 429 kts | 36° |
| 2026-05-04 23:19 | 39.50005 | -74.36153 | 20075 ft | 426 kts | 36° |
| 2026-05-04 23:20 | 39.52236 | -74.33711 | 19709 ft | 424 kts | 36° |
| 2026-05-04 23:20 | 39.54484 | -74.31253 | 19324 ft | 422 kts | 36° |
| 2026-05-04 23:20 | 39.56695 | -74.28829 | 19026 ft | 406 kts | 36° |
| 2026-05-04 23:20 | 39.58814 | -74.26499 | 18954 ft | 396 kts | 36° |
| 2026-05-04 23:21 | 39.60898 | -74.24205 | 18447 ft | 391 kts | 36° |
| 2026-05-04 23:21 | 39.62970 | -74.21929 | 17700 ft | 389 kts | 36° |
| 2026-05-04 23:21 | 39.65024 | -74.19671 | 16981 ft | 385 kts | 36° |
| 2026-05-04 23:21 | 39.67059 | -74.17434 | 16307 ft | 381 kts | 36° |
| 2026-05-04 23:22 | 39.69064 | -74.15219 | 15979 ft | 376 kts | 37° |
| 2026-05-04 23:22 | 39.71039 | -74.13035 | 15612 ft | 376 kts | 37° |
| 2026-05-04 23:22 | 39.73039 | -74.10824 | 15346 ft | 376 kts | 37° |
| 2026-05-04 23:22 | 39.75028 | -74.08620 | 15119 ft | 375 kts | 37° |
| 2026-05-04 23:23 | 39.77019 | -74.06414 | 15016 ft | 375 kts | 37° |
| 2026-05-04 23:23 | 39.79000 | -74.04216 | 14954 ft | 375 kts | 37° |
| 2026-05-04 23:23 | 39.80981 | -74.02018 | 14888 ft | 374 kts | 37° |
| 2026-05-04 23:23 | 39.82973 | -73.99831 | 14418 ft | 375 kts | 34° |
| 2026-05-04 23:24 | 39.85099 | -73.97928 | 13810 ft | 367 kts | 27° |
| 2026-05-04 23:24 | 39.87295 | -73.96271 | 13249 ft | 363 kts | 25° |
| 2026-05-04 23:24 | 39.89502 | -73.94707 | 12689 ft | 360 kts | 24° |
| 2026-05-04 23:24 | 39.91701 | -73.93172 | 12216 ft | 356 kts | 24° |
| 2026-05-04 23:25 | 39.93882 | -73.91649 | 11841 ft | 355 kts | 24° |
| 2026-05-04 23:25 | 39.96039 | -73.90139 | 11493 ft | 347 kts | 24° |
| 2026-05-04 23:25 | 39.98076 | -73.88691 | 11286 ft | 319 kts | 24° |
| 2026-05-04 23:25 | 39.99994 | -73.87322 | 11137 ft | 310 kts | 24° |
| 2026-05-04 23:26 | 40.01868 | -73.85989 | 11020 ft | 304 kts | 24° |
| 2026-05-04 23:26 | 40.03096 | -73.85116 | 10990 ft | 305 kts | 24° |
| 2026-05-04 23:26 | 40.04965 | -73.83788 | 10921 ft | 305 kts | 25° |
| 2026-05-04 23:26 | 40.06824 | -73.82462 | 10874 ft | 303 kts | 24° |
| 2026-05-04 23:27 | 40.08679 | -73.81140 | 10809 ft | 304 kts | 24° |
| 2026-05-04 23:27 | 40.10535 | -73.79824 | 10744 ft | 304 kts | 24° |
| 2026-05-04 23:27 | 40.12394 | -73.78506 | 10674 ft | 304 kts | 24° |
| 2026-05-04 23:27 | 40.14253 | -73.77189 | 10616 ft | 304 kts | 24° |
| 2026-05-04 23:28 | 40.16106 | -73.75872 | 10553 ft | 303 kts | 24° |
| 2026-05-04 23:28 | 40.17961 | -73.74555 | 10540 ft | 303 kts | 24° |
| 2026-05-04 23:28 | 40.19810 | -73.73245 | 10540 ft | 303 kts | 24° |
| 2026-05-04 23:28 | 40.21655 | -73.71936 | 10284 ft | 301 kts | 24° |
| 2026-05-04 23:29 | 40.23500 | -73.70626 | 9850 ft | 299 kts | 24° |
| 2026-05-04 23:29 | 40.25290 | -73.69295 | 9482 ft | 296 kts | 27° |
| 2026-05-04 23:29 | 40.27042 | -73.67904 | 9070 ft | 293 kts | 27° |
| 2026-05-04 23:29 | 40.28787 | -73.66516 | 8641 ft | 293 kts | 27° |
| 2026-05-04 23:30 | 40.30525 | -73.65130 | 8223 ft | 292 kts | 27° |
| 2026-05-04 23:30 | 40.32257 | -73.63757 | 7810 ft | 290 kts | 27° |
| 2026-05-04 23:30 | 40.33965 | -73.62412 | 7411 ft | 289 kts | 27° |
| 2026-05-04 23:30 | 40.35684 | -73.61060 | 7028 ft | 288 kts | 27° |
| 2026-05-04 23:31 | 40.37403 | -73.59714 | 6623 ft | 287 kts | 27° |
| 2026-05-04 23:31 | 40.39113 | -73.58382 | 6252 ft | 285 kts | 27° |
| 2026-05-04 23:31 | 40.40821 | -73.57054 | 5842 ft | 285 kts | 27° |
| 2026-05-04 23:31 | 40.42522 | -73.55737 | 5437 ft | 284 kts | 27° |
| 2026-05-04 23:32 | 40.44222 | -73.54425 | 5040 ft | 283 kts | 27° |
| 2026-05-04 23:32 | 40.45933 | -73.53126 | 4674 ft | 283 kts | 27° |
| 2026-05-04 23:32 | 40.47645 | -73.51837 | 4300 ft | 284 kts | 27° |
| 2026-05-04 23:32 | 40.49358 | -73.50566 | 4037 ft | 282 kts | 27° |
| 2026-05-04 23:33 | 40.51075 | -73.49306 | 3988 ft | 284 kts | 27° |
| 2026-05-04 23:33 | 40.52774 | -73.48066 | 3977 ft | 271 kts | 27° |
| 2026-05-04 23:33 | 40.54375 | -73.46886 | 3980 ft | 260 kts | 27° |
| 2026-05-04 23:33 | 40.55945 | -73.45722 | 3989 ft | 258 kts | 27° |
| 2026-05-04 23:34 | 40.57509 | -73.44562 | 3992 ft | 259 kts | 27° |
| 2026-05-04 23:34 | 40.59074 | -73.43406 | 3984 ft | 258 kts | 26° |
| 2026-05-04 23:34 | 40.60642 | -73.42247 | 3988 ft | 258 kts | 27° |
| 2026-05-04 23:34 | 40.62209 | -73.41088 | 3993 ft | 259 kts | 27° |
| 2026-05-04 23:35 | 40.63781 | -73.39924 | 3984 ft | 259 kts | 27° |
| 2026-05-04 23:35 | 40.65351 | -73.38765 | 3987 ft | 259 kts | 26° |
| 2026-05-04 23:35 | 40.66922 | -73.37607 | 3985 ft | 258 kts | 27° |
| 2026-05-04 23:35 | 40.68484 | -73.36446 | 3987 ft | 259 kts | 27° |
| 2026-05-04 23:36 | 40.70045 | -73.35284 | 3745 ft | 258 kts | 27° |
| 2026-05-04 23:36 | 40.71618 | -73.34114 | 3377 ft | 261 kts | 27° |
| 2026-05-04 23:36 | 40.73207 | -73.32959 | 3050 ft | 259 kts | 24° |
| 2026-05-04 23:36 | 40.74912 | -73.32423 | 2981 ft | 248 kts | 354° |
| 2026-05-04 23:37 | 40.76626 | -73.32643 | 2995 ft | 248 kts | 347° |
| 2026-05-04 23:37 | 40.78340 | -73.32953 | 2986 ft | 247 kts | 346° |
| 2026-05-04 23:37 | 40.79919 | -73.33672 | 2917 ft | 234 kts | 320° |
| 2026-05-04 23:37 | 40.81014 | -73.35164 | 2563 ft | 225 kts | 299° |
| 2026-05-04 23:38 | 40.81877 | -73.36870 | 2199 ft | 228 kts | 297° |
| 2026-05-04 23:38 | 40.82732 | -73.38634 | 1933 ft | 226 kts | 297° |
| 2026-05-04 23:38 | 40.83573 | -73.40386 | 1885 ft | 227 kts | 297° |
| 2026-05-04 23:38 | 40.84410 | -73.42146 | 1887 ft | 226 kts | 297° |
| 2026-05-04 23:39 | 40.85175 | -73.43941 | 1872 ft | 221 kts | 283° |
| 2026-05-04 23:39 | 40.85379 | -73.45913 | 1888 ft | 217 kts | 266° |
| 2026-05-04 23:39 | 40.85400 | -73.47924 | 1881 ft | 219 kts | 266° |
| 2026-05-04 23:39 | 40.85401 | -73.49923 | 1874 ft | 217 kts | 258° |
| 2026-05-04 23:40 | 40.84895 | -73.51737 | 1884 ft | 208 kts | 237° |
| 2026-05-04 23:40 | 40.84121 | -73.53362 | 1879 ft | 210 kts | 235° |
| 2026-05-04 23:40 | 40.83365 | -73.55022 | 1882 ft | 210 kts | 237° |
| 2026-05-04 23:40 | 40.82650 | -73.56698 | 1875 ft | 209 kts | 238° |
| 2026-05-04 23:41 | 40.81945 | -73.58388 | 1878 ft | 210 kts | 238° |
| 2026-05-04 23:41 | 40.81233 | -73.60073 | 1875 ft | 210 kts | 238° |
| 2026-05-04 23:41 | 40.80513 | -73.61756 | 1872 ft | 211 kts | 237° |
| 2026-05-04 23:41 | 40.79799 | -73.63433 | 1871 ft | 210 kts | 238° |
| 2026-05-04 23:42 | 40.79100 | -73.65110 | 1872 ft | 204 kts | 238° |
| 2026-05-04 23:42 | 40.78359 | -73.66620 | 1828 ft | 188 kts | 220° |
| 2026-05-04 23:42 | 40.77326 | -73.67499 | 1880 ft | 176 kts | 208° |
| 2026-05-04 23:42 | 40.76281 | -73.68313 | 1904 ft | 173 kts | 208° |
| 2026-05-04 23:43 | 40.75261 | -73.69075 | 1863 ft | 165 kts | 207° |
| 2026-05-04 23:43 | 40.74259 | -73.69783 | 1879 ft | 160 kts | 206° |
| 2026-05-04 23:43 | 40.73356 | -73.70425 | 1801 ft | 134 kts | 206° |
| 2026-05-04 23:43 | 40.72591 | -73.70973 | 1817 ft | 121 kts | 206° |
| 2026-05-04 23:44 | 40.71846 | -73.71498 | 1786 ft | 121 kts | 205° |
| 2026-05-04 23:44 | 40.71101 | -73.72030 | 1596 ft | 122 kts | 205° |
| 2026-05-04 23:44 | 40.70365 | -73.72556 | 1424 ft | 120 kts | 203° |
| 2026-05-04 23:44 | 40.69630 | -73.73078 | 1255 ft | 119 kts | 203° |
| 2026-05-04 23:45 | 40.68897 | -73.73598 | 1078 ft | 120 kts | 204° |
| 2026-05-04 23:45 | 40.68173 | -73.74116 | 940 ft | 120 kts | 204° |
| 2026-05-04 23:45 | 40.67435 | -73.74639 | 790 ft | 120 kts | 205° |
| 2026-05-04 23:45 | 40.66699 | -73.75168 | 624 ft | 121 kts | 203° |
| 2026-05-04 23:46 | 40.65948 | -73.75698 | 433 ft | 123 kts | 203° |
| 2026-05-04 23:46 | 40.65223 | -73.76215 | 301 ft | 124 kts | 206° |
| 2026-05-04 23:46 | 40.64483 | -73.76737 | 118 ft | 121 kts | 205° |
| 2026-05-04 23:46 | 40.63833 | -73.77245 | 30 ft | 78 kts | 218° |
| 2026-05-04 23:47 | 40.63632 | -73.77536 | 29 ft | 22 kts | 269° |
| 2026-05-04 23:47 | 40.63656 | -73.77613 | 27 ft | 6 kts | 308° |
| 2026-05-04 23:47 | 40.63684 | -73.77635 | 27 ft | 8 kts | 334° |
| 2026-05-04 23:47 | 40.63863 | -73.77569 | 26 ft | 42 kts | 30° |
| 2026-05-04 23:48 | 40.64162 | -73.77321 | 31 ft | 38 kts | 32° |
| 2026-05-04 23:48 | 40.64342 | -73.77174 | 29 ft | 26 kts | 30° |
| 2026-05-04 23:48 | 40.64446 | -73.77111 | 28 ft | 6 kts | 19° |
| 2026-05-04 23:48 | 40.64485 | -73.77094 | 28 ft | 6 kts | 15° |
| 2026-05-04 23:49 | 40.64535 | -73.77078 | 28 ft | 1 kts | 11° |
| 2026-05-04 23:49 | 40.64559 | -73.77077 | 29 ft | 4 kts | 359° |
| 2026-05-04 23:49 | 40.64574 | -73.77079 | 29 ft | 1 kts | 353° |
| 2026-05-04 23:49 | 40.64601 | -73.77084 | 29 ft | 11 kts | 350° |
| 2026-05-04 23:50 | 40.64722 | -73.77181 | 28 ft | 32 kts | 308° |
| 2026-05-04 23:50 | 40.64824 | -73.77406 | 29 ft | 27 kts | 299° |
| 2026-05-04 23:50 | 40.64918 | -73.77622 | 28 ft | 26 kts | 300° |
| 2026-05-04 23:50 | 40.65010 | -73.77826 | 26 ft | 26 kts | 302° |
| 2026-05-04 23:51 | 40.65082 | -73.77955 | 29 ft | 13 kts | 321° |
| 2026-05-04 23:51 | 40.65133 | -73.77969 | 28 ft | 11 kts | 6° |
| 2026-05-04 23:51 | 40.65229 | -73.77916 | 29 ft | 16 kts | 28° |
| 2026-05-04 23:51 | 40.65325 | -73.77847 | 27 ft | 10 kts | 27° |
| 2026-05-04 23:52 | 40.65345 | -73.77846 | 27 ft | 6 kts | 355° |
| 2026-05-04 23:52 | 40.65393 | -73.77887 | 28 ft | 6 kts | 303° |
| 2026-05-04 23:52 | 40.65403 | -73.77915 | 29 ft | 5 kts | 296° |
| 2026-05-04 23:52 | 40.65429 | -73.77979 | 28 ft | 11 kts | 300° |
| 2026-05-04 23:53 | 40.65500 | -73.78131 | 28 ft | 30 kts | 301° |
| 2026-05-04 23:53 | 40.65626 | -73.78408 | 30 ft | 32 kts | 300° |
| 2026-05-04 23:53 | 40.65727 | -73.78635 | 30 ft | 25 kts | 300° |
| 2026-05-04 23:53 | 40.65813 | -73.78742 | 27 ft | 8 kts | 354° |
| 2026-05-04 23:54 | 40.65863 | -73.78719 | 26 ft | 9 kts | 21° |
| 2026-05-04 23:54 | 40.65917 | -73.78688 | 28 ft | 10 kts | 27° |
| 2026-05-04 23:54 | 40.65972 | -73.78633 | 27 ft | 7 kts | 51° |
| 2026-05-04 23:54 | 40.65998 | -73.78555 | 28 ft | 16 kts | 72° |
| 2026-05-04 23:55 | 40.66019 | -73.78459 | 28 ft | 7 kts | 63° |
| 2026-05-04 23:55 | 40.66035 | -73.78435 | 28 ft | 4 kts | 46° |
| 2026-05-04 23:55 | 40.66061 | -73.78406 | 26 ft | 0 kts | 38° |